sensor_id;sensor_type;location;lat;lon;timestamp;P1;durP1;ratioP1;P2;durP2;ratioP2
68384;SDS011;55336;43.062;25.626;2022-10-17T00:01:40;5.03;;;4.50;;
68384;SDS011;55336;43.062;25.626;2022-10-17T00:04:05;6.07;;;4.63;;
68384;SDS011;55336;43.062;25.626;2022-10-17T00:06:31;4.63;;;4.32;;
68384;SDS011;55336;43.062;25.626;2022-10-17T00:08:57;5.60;;;4.43;;
68384;SDS011;55336;43.062;25.626;2022-10-17T00:11:23;4.75;;;4.35;;
68384;SDS011;55336;43.062;25.626;2022-10-17T00:13:50;4.95;;;4.55;;
68384;SDS011;55336;43.062;25.626;2022-10-17T00:16:24;4.68;;;4.38;;
68384;SDS011;55336;43.062;25.626;2022-10-17T00:18:53;5.25;;;4.85;;
68384;SDS011;55336;43.062;25.626;2022-10-17T00:21:19;4.72;;;4.32;;
68384;SDS011;55336;43.062;25.626;2022-10-17T00:23:46;4.90;;;4.50;;
68384;SDS011;55336;43.062;25.626;2022-10-17T00:26:12;4.35;;;4.05;;
68384;SDS011;55336;43.062;25.626;2022-10-17T00:28:39;5.00;;;4.60;;
68384;SDS011;55336;43.062;25.626;2022-10-17T00:31:05;4.55;;;4.25;;
68384;SDS011;55336;43.062;25.626;2022-10-17T00:33:32;5.03;;;4.63;;
68384;SDS011;55336;43.062;25.626;2022-10-17T00:36:06;6.15;;;5.65;;
68384;SDS011;55336;43.062;25.626;2022-10-17T00:38:40;4.25;;;3.97;;
68384;SDS011;55336;43.062;25.626;2022-10-17T00:41:08;4.63;;;4.28;;
68384;SDS011;55336;43.062;25.626;2022-10-17T00:43:53;4.20;;;3.90;;
68384;SDS011;55336;43.062;25.626;2022-10-17T00:46:34;4.95;;;4.55;;
68384;SDS011;55336;43.062;25.626;2022-10-17T00:49:07;4.45;;;4.20;;
68384;SDS011;55336;43.062;25.626;2022-10-17T00:51:46;5.30;;;4.90;;
68384;SDS011;55336;43.062;25.626;2022-10-17T00:54:15;5.45;;;5.05;;
68384;SDS011;55336;43.062;25.626;2022-10-17T00:56:45;4.55;;;4.18;;
68384;SDS011;55336;43.062;25.626;2022-10-17T00:59:12;5.80;;;5.30;;
68384;SDS011;55336;43.062;25.626;2022-10-17T01:01:40;5.93;;;5.45;;
68384;SDS011;55336;43.062;25.626;2022-10-17T01:04:10;8.10;;;4.53;;
68384;SDS011;55336;43.062;25.626;2022-10-17T01:06:36;4.10;;;3.80;;
68384;SDS011;55336;43.062;25.626;2022-10-17T01:09:02;5.40;;;5.00;;
68384;SDS011;55336;43.062;25.626;2022-10-17T01:11:31;4.95;;;4.55;;
68384;SDS011;55336;43.062;25.626;2022-10-17T01:16:43;5.20;;;4.78;;
68384;SDS011;55336;43.062;25.626;2022-10-17T01:27:55;4.47;;;4.18;;
68384;SDS011;55336;43.062;25.626;2022-10-17T01:36:16;4.93;;;4.53;;
68384;SDS011;55336;43.062;25.626;2022-10-17T01:42:00;5.55;;;5.05;;
68384;SDS011;55336;43.062;25.626;2022-10-17T01:44:47;7.60;;;4.65;;
68384;SDS011;55336;43.062;25.626;2022-10-17T01:47:20;5.20;;;4.80;;
68384;SDS011;55336;43.062;25.626;2022-10-17T01:49:51;5.35;;;4.85;;
68384;SDS011;55336;43.062;25.626;2022-10-17T01:52:22;4.13;;;3.92;;
68384;SDS011;55336;43.062;25.626;2022-10-17T01:54:55;5.50;;;5.00;;
68384;SDS011;55336;43.062;25.626;2022-10-17T01:57:33;5.75;;;5.28;;
68384;SDS011;55336;43.062;25.626;2022-10-17T02:00:05;5.28;;;4.88;;
68384;SDS011;55336;43.062;25.626;2022-10-17T02:02:35;12.50;;;5.18;;
68384;SDS011;55336;43.062;25.626;2022-10-17T02:05:02;5.18;;;4.78;;
68384;SDS011;55336;43.062;25.626;2022-10-17T02:07:28;4.75;;;4.45;;
68384;SDS011;55336;43.062;25.626;2022-10-17T02:09:54;4.68;;;4.30;;
68384;SDS011;55336;43.062;25.626;2022-10-17T02:22:40;5.47;;;5.07;;
68384;SDS011;55336;43.062;25.626;2022-10-17T02:25:16;4.40;;;4.10;;
68384;SDS011;55336;43.062;25.626;2022-10-17T02:27:52;4.93;;;4.53;;
68384;SDS011;55336;43.062;25.626;2022-10-17T02:32:59;5.30;;;4.85;;
68384;SDS011;55336;43.062;25.626;2022-10-17T02:36:00;5.38;;;4.88;;
68384;SDS011;55336;43.062;25.626;2022-10-17T02:38:30;4.80;;;4.50;;
68384;SDS011;55336;43.062;25.626;2022-10-17T02:40:58;5.50;;;5.00;;
68384;SDS011;55336;43.062;25.626;2022-10-17T02:43:25;5.25;;;4.85;;
68384;SDS011;55336;43.062;25.626;2022-10-17T02:45:51;4.68;;;4.38;;
68384;SDS011;55336;43.062;25.626;2022-10-17T02:48:24;6.30;;;4.85;;
68384;SDS011;55336;43.062;25.626;2022-10-17T02:51:11;5.65;;;5.15;;
68384;SDS011;55336;43.062;25.626;2022-10-17T02:56:19;5.28;;;4.80;;
68384;SDS011;55336;43.062;25.626;2022-10-17T02:58:47;5.30;;;4.85;;
68384;SDS011;55336;43.062;25.626;2022-10-17T03:01:17;4.70;;;4.30;;
68384;SDS011;55336;43.062;25.626;2022-10-17T03:03:44;4.40;;;4.10;;
68384;SDS011;55336;43.062;25.626;2022-10-17T03:06:10;4.90;;;4.60;;
68384;SDS011;55336;43.062;25.626;2022-10-17T03:08:35;4.80;;;4.40;;
68384;SDS011;55336;43.062;25.626;2022-10-17T03:11:01;4.93;;;4.63;;
68384;SDS011;55336;43.062;25.626;2022-10-17T03:13:28;4.72;;;4.43;;
68384;SDS011;55336;43.062;25.626;2022-10-17T03:15:57;5.63;;;5.22;;
68384;SDS011;55336;43.062;25.626;2022-10-17T03:18:23;5.90;;;5.40;;
68384;SDS011;55336;43.062;25.626;2022-10-17T03:20:49;5.03;;;4.70;;
68384;SDS011;55336;43.062;25.626;2022-10-17T03:23:15;5.18;;;4.78;;
68384;SDS011;55336;43.062;25.626;2022-10-17T03:25:41;5.15;;;4.75;;
68384;SDS011;55336;43.062;25.626;2022-10-17T03:28:07;5.15;;;4.68;;
68384;SDS011;55336;43.062;25.626;2022-10-17T03:30:36;4.72;;;4.43;;
68384;SDS011;55336;43.062;25.626;2022-10-17T03:33:03;5.25;;;4.85;;
68384;SDS011;55336;43.062;25.626;2022-10-17T03:35:28;4.40;;;4.10;;
68384;SDS011;55336;43.062;25.626;2022-10-17T03:37:54;5.22;;;4.82;;
68384;SDS011;55336;43.062;25.626;2022-10-17T03:40:20;5.18;;;4.43;;
68384;SDS011;55336;43.062;25.626;2022-10-17T03:42:46;4.68;;;4.38;;
68384;SDS011;55336;43.062;25.626;2022-10-17T03:45:14;4.50;;;4.20;;
68384;SDS011;55336;43.062;25.626;2022-10-17T03:47:41;5.38;;;4.97;;
68384;SDS011;55336;43.062;25.626;2022-10-17T03:50:07;5.40;;;5.00;;
68384;SDS011;55336;43.062;25.626;2022-10-17T03:52:33;10.43;;;5.65;;
68384;SDS011;55336;43.062;25.626;2022-10-17T03:54:59;5.75;;;5.25;;
68384;SDS011;55336;43.062;25.626;2022-10-17T03:57:25;5.90;;;5.32;;
68384;SDS011;55336;43.062;25.626;2022-10-17T03:59:51;5.60;;;5.18;;
68384;SDS011;55336;43.062;25.626;2022-10-17T04:02:18;5.50;;;5.00;;
68384;SDS011;55336;43.062;25.626;2022-10-17T04:04:44;4.68;;;4.38;;
68384;SDS011;55336;43.062;25.626;2022-10-17T04:07:10;4.97;;;4.68;;
68384;SDS011;55336;43.062;25.626;2022-10-17T04:09:36;4.68;;;4.38;;
68384;SDS011;55336;43.062;25.626;2022-10-17T04:12:02;5.88;;;5.38;;
68384;SDS011;55336;43.062;25.626;2022-10-17T04:14:28;6.10;;;5.53;;
68384;SDS011;55336;43.062;25.626;2022-10-17T04:16:54;5.00;;;4.70;;
68384;SDS011;55336;43.062;25.626;2022-10-17T04:19:20;5.60;;;5.10;;
68384;SDS011;55336;43.062;25.626;2022-10-17T04:21:46;6.22;;;5.72;;
68384;SDS011;55336;43.062;25.626;2022-10-17T04:24:12;5.07;;;4.68;;
68384;SDS011;55336;43.062;25.626;2022-10-17T04:26:38;5.38;;;4.65;;
68384;SDS011;55336;43.062;25.626;2022-10-17T04:29:04;7.00;;;4.57;;
68384;SDS011;55336;43.062;25.626;2022-10-17T04:31:29;5.15;;;4.75;;
68384;SDS011;55336;43.062;25.626;2022-10-17T04:33:56;5.15;;;4.85;;
68384;SDS011;55336;43.062;25.626;2022-10-17T04:36:21;5.75;;;5.35;;
68384;SDS011;55336;43.062;25.626;2022-10-17T04:38:47;10.93;;;5.90;;
68384;SDS011;55336;43.062;25.626;2022-10-17T04:41:14;5.53;;;5.13;;
68384;SDS011;55336;43.062;25.626;2022-10-17T04:43:41;5.72;;;5.10;;
68384;SDS011;55336;43.062;25.626;2022-10-17T04:46:12;5.53;;;5.05;;
68384;SDS011;55336;43.062;25.626;2022-10-17T04:48:39;4.68;;;4.38;;
68384;SDS011;55336;43.062;25.626;2022-10-17T04:51:07;11.15;;;5.80;;
68384;SDS011;55336;43.062;25.626;2022-10-17T04:53:35;5.82;;;5.32;;
68384;SDS011;55336;43.062;25.626;2022-10-17T04:56:13;5.32;;;4.82;;
68384;SDS011;55336;43.062;25.626;2022-10-17T04:58:43;6.00;;;5.45;;
68384;SDS011;55336;43.062;25.626;2022-10-17T05:01:11;5.35;;;4.95;;
68384;SDS011;55336;43.062;25.626;2022-10-17T05:03:39;5.63;;;5.15;;
68384;SDS011;55336;43.062;25.626;2022-10-17T05:06:06;6.32;;;5.85;;
68384;SDS011;55336;43.062;25.626;2022-10-17T05:08:35;6.30;;;5.80;;
68384;SDS011;55336;43.062;25.626;2022-10-17T05:11:02;6.45;;;5.93;;
68384;SDS011;55336;43.062;25.626;2022-10-17T05:13:28;5.20;;;4.70;;
68384;SDS011;55336;43.062;25.626;2022-10-17T05:15:58;5.95;;;5.50;;
68384;SDS011;55336;43.062;25.626;2022-10-17T05:18:25;6.50;;;6.00;;
68384;SDS011;55336;43.062;25.626;2022-10-17T05:20:52;7.03;;;6.43;;
68384;SDS011;55336;43.062;25.626;2022-10-17T05:23:18;5.18;;;4.78;;
68384;SDS011;55336;43.062;25.626;2022-10-17T05:25:44;6.55;;;6.00;;
68384;SDS011;55336;43.062;25.626;2022-10-17T05:28:10;7.15;;;5.72;;
68384;SDS011;55336;43.062;25.626;2022-10-17T05:30:36;6.30;;;5.68;;
68384;SDS011;55336;43.062;25.626;2022-10-17T05:33:02;6.20;;;5.78;;
68384;SDS011;55336;43.062;25.626;2022-10-17T05:35:28;7.03;;;6.43;;
68384;SDS011;55336;43.062;25.626;2022-10-17T05:37:54;6.35;;;5.85;;
68384;SDS011;55336;43.062;25.626;2022-10-17T05:40:20;7.00;;;6.50;;
68384;SDS011;55336;43.062;25.626;2022-10-17T05:42:46;7.43;;;6.72;;
68384;SDS011;55336;43.062;25.626;2022-10-17T05:45:13;6.63;;;6.10;;
68384;SDS011;55336;43.062;25.626;2022-10-17T05:47:40;6.93;;;6.40;;
68384;SDS011;55336;43.062;25.626;2022-10-17T05:50:06;6.50;;;6.00;;
68384;SDS011;55336;43.062;25.626;2022-10-17T05:52:33;5.90;;;5.50;;
68384;SDS011;55336;43.062;25.626;2022-10-17T05:54:59;6.63;;;6.13;;
68384;SDS011;55336;43.062;25.626;2022-10-17T05:57:25;5.95;;;5.50;;
68384;SDS011;55336;43.062;25.626;2022-10-17T05:59:52;5.97;;;5.47;;
68384;SDS011;55336;43.062;25.626;2022-10-17T06:02:18;5.25;;;4.85;;
68384;SDS011;55336;43.062;25.626;2022-10-17T06:04:44;7.15;;;5.22;;
68384;SDS011;55336;43.062;25.626;2022-10-17T06:07:12;6.13;;;5.53;;
68384;SDS011;55336;43.062;25.626;2022-10-17T06:09:39;5.50;;;5.00;;
68384;SDS011;55336;43.062;25.626;2022-10-17T06:12:05;5.72;;;5.32;;
68384;SDS011;55336;43.062;25.626;2022-10-17T06:14:32;5.65;;;5.25;;
68384;SDS011;55336;43.062;25.626;2022-10-17T06:16:58;7.75;;;5.63;;
68384;SDS011;55336;43.062;25.626;2022-10-17T06:21:50;5.40;;;5.00;;
68384;SDS011;55336;43.062;25.626;2022-10-17T06:24:16;5.45;;;4.65;;
68384;SDS011;55336;43.062;25.626;2022-10-17T06:29:08;5.07;;;4.68;;
68384;SDS011;55336;43.062;25.626;2022-10-17T06:34:00;6.85;;;6.18;;
68384;SDS011;55336;43.062;25.626;2022-10-17T06:36:26;6.40;;;5.75;;
68384;SDS011;55336;43.062;25.626;2022-10-17T06:38:53;5.82;;;5.32;;
68384;SDS011;55336;43.062;25.626;2022-10-17T06:41:21;5.93;;;5.35;;
68384;SDS011;55336;43.062;25.626;2022-10-17T06:46:14;5.93;;;5.43;;
68384;SDS011;55336;43.062;25.626;2022-10-17T06:48:42;7.00;;;6.40;;
68384;SDS011;55336;43.062;25.626;2022-10-17T06:53:37;7.10;;;6.43;;
68384;SDS011;55336;43.062;25.626;2022-10-17T06:56:04;5.80;;;5.40;;
68384;SDS011;55336;43.062;25.626;2022-10-17T06:58:33;5.70;;;5.20;;
68384;SDS011;55336;43.062;25.626;2022-10-17T07:01:09;6.22;;;5.72;;
68384;SDS011;55336;43.062;25.626;2022-10-17T07:03:36;6.18;;;5.50;;
68384;SDS011;55336;43.062;25.626;2022-10-17T07:06:05;6.13;;;4.95;;
68384;SDS011;55336;43.062;25.626;2022-10-17T07:08:31;6.10;;;5.45;;
68384;SDS011;55336;43.062;25.626;2022-10-17T07:10:59;6.95;;;5.75;;
68384;SDS011;55336;43.062;25.626;2022-10-17T07:13:35;4.80;;;4.40;;
68384;SDS011;55336;43.062;25.626;2022-10-17T07:16:01;5.43;;;4.88;;
68384;SDS011;55336;43.062;25.626;2022-10-17T07:18:28;5.15;;;4.65;;
68384;SDS011;55336;43.062;25.626;2022-10-17T07:23:20;7.53;;;4.13;;
68384;SDS011;55336;43.062;25.626;2022-10-17T07:25:46;4.75;;;3.90;;
68384;SDS011;55336;43.062;25.626;2022-10-17T07:30:41;3.80;;;3.50;;
68384;SDS011;55336;43.062;25.626;2022-10-17T07:33:10;3.50;;;3.17;;
68384;SDS011;55336;43.062;25.626;2022-10-17T07:38:05;3.15;;;2.95;;
68384;SDS011;55336;43.062;25.626;2022-10-17T07:40:31;2.70;;;2.47;;
68384;SDS011;55336;43.062;25.626;2022-10-17T07:42:57;2.70;;;2.50;;
68384;SDS011;55336;43.062;25.626;2022-10-17T07:47:55;9.63;;;2.08;;
68384;SDS011;55336;43.062;25.626;2022-10-17T07:50:22;6.88;;;2.03;;
68384;SDS011;55336;43.062;25.626;2022-10-17T07:52:49;2.30;;;2.10;;
68384;SDS011;55336;43.062;25.626;2022-10-17T07:55:15;3.15;;;2.85;;
68384;SDS011;55336;43.062;25.626;2022-10-17T08:00:09;2.22;;;2.10;;
68384;SDS011;55336;43.062;25.626;2022-10-17T08:02:36;2.65;;;2.45;;
68384;SDS011;55336;43.062;25.626;2022-10-17T08:05:01;1.85;;;1.75;;
68384;SDS011;55336;43.062;25.626;2022-10-17T08:07:28;2.53;;;2.33;;
68384;SDS011;55336;43.062;25.626;2022-10-17T08:09:54;4.00;;;2.20;;
68384;SDS011;55336;43.062;25.626;2022-10-17T08:12:20;1.92;;;1.83;;
68384;SDS011;55336;43.062;25.626;2022-10-17T08:14:46;2.17;;;2.05;;
68384;SDS011;55336;43.062;25.626;2022-10-17T08:17:12;1.77;;;1.67;;
68384;SDS011;55336;43.062;25.626;2022-10-17T08:19:38;2.47;;;2.28;;
68384;SDS011;55336;43.062;25.626;2022-10-17T08:22:04;1.80;;;1.50;;
68384;SDS011;55336;43.062;25.626;2022-10-17T08:24:30;2.88;;;2.38;;
68384;SDS011;55336;43.062;25.626;2022-10-17T08:29:22;2.17;;;1.98;;
68384;SDS011;55336;43.062;25.626;2022-10-17T08:31:48;5.57;;;2.00;;
68384;SDS011;55336;43.062;25.626;2022-10-17T08:36:40;1.90;;;1.80;;
68384;SDS011;55336;43.062;25.626;2022-10-17T08:39:06;1.20;;;1.20;;
68384;SDS011;55336;43.062;25.626;2022-10-17T08:47:26;1.60;;;1.50;;
68384;SDS011;55336;43.062;25.626;2022-10-17T08:50:02;2.13;;;1.92;;
68384;SDS011;55336;43.062;25.626;2022-10-17T08:52:34;2.10;;;1.90;;
68384;SDS011;55336;43.062;25.626;2022-10-17T08:55:12;1.83;;;1.73;;
68384;SDS011;55336;43.062;25.626;2022-10-17T08:57:47;1.35;;;1.25;;
68384;SDS011;55336;43.062;25.626;2022-10-17T09:00:19;1.83;;;1.73;;
68384;SDS011;55336;43.062;25.626;2022-10-17T09:02:59;1.35;;;1.25;;
68384;SDS011;55336;43.062;25.626;2022-10-17T09:19:32;2.95;;;2.20;;
68384;SDS011;55336;43.062;25.626;2022-10-17T09:22:03;2.00;;;1.88;;
68384;SDS011;55336;43.062;25.626;2022-10-17T09:27:10;1.90;;;1.80;;
68384;SDS011;55336;43.062;25.626;2022-10-17T09:29:44;3.35;;;1.80;;
68384;SDS011;55336;43.062;25.626;2022-10-17T09:32:17;1.92;;;1.63;;
68384;SDS011;55336;43.062;25.626;2022-10-17T09:34:47;2.78;;;2.58;;
68384;SDS011;55336;43.062;25.626;2022-10-17T09:39:43;1.65;;;1.48;;
68384;SDS011;55336;43.062;25.626;2022-10-17T09:42:14;2.05;;;1.88;;
68384;SDS011;55336;43.062;25.626;2022-10-17T09:45:10;3.25;;;1.90;;
68384;SDS011;55336;43.062;25.626;2022-10-17T09:47:46;1.65;;;1.55;;
68384;SDS011;55336;43.062;25.626;2022-10-17T09:50:30;2.63;;;1.67;;
68384;SDS011;55336;43.062;25.626;2022-10-17T09:53:02;3.45;;;2.08;;
68384;SDS011;55336;43.062;25.626;2022-10-17T09:55:44;2.05;;;1.73;;
68384;SDS011;55336;43.062;25.626;2022-10-17T09:58:13;2.58;;;2.03;;
68384;SDS011;55336;43.062;25.626;2022-10-17T10:00:42;1.88;;;1.77;;
68384;SDS011;55336;43.062;25.626;2022-10-17T10:05:50;1.77;;;1.58;;
68384;SDS011;55336;43.062;25.626;2022-10-17T10:08:32;1.35;;;1.33;;
68384;SDS011;55336;43.062;25.626;2022-10-17T10:11:01;4.03;;;1.73;;
68384;SDS011;55336;43.062;25.626;2022-10-17T10:13:31;1.50;;;1.40;;
68384;SDS011;55336;43.062;25.626;2022-10-17T10:18:56;2.30;;;1.92;;
68384;SDS011;55336;43.062;25.626;2022-10-17T10:21:24;3.03;;;2.00;;
68384;SDS011;55336;43.062;25.626;2022-10-17T10:26:46;1.65;;;1.48;;
68384;SDS011;55336;43.062;25.626;2022-10-17T10:29:30;1.45;;;1.35;;
68384;SDS011;55336;43.062;25.626;2022-10-17T10:34:54;1.52;;;1.42;;
68384;SDS011;55336;43.062;25.626;2022-10-17T10:37:21;1.15;;;1.13;;
68384;SDS011;55336;43.062;25.626;2022-10-17T10:39:52;1.40;;;1.30;;
68384;SDS011;55336;43.062;25.626;2022-10-17T10:42:23;2.05;;;1.58;;
68384;SDS011;55336;43.062;25.626;2022-10-17T10:48:00;1.42;;;1.33;;
68384;SDS011;55336;43.062;25.626;2022-10-17T10:53:12;1.50;;;1.40;;
68384;SDS011;55336;43.062;25.626;2022-10-17T10:55:52;1.67;;;1.50;;
68384;SDS011;55336;43.062;25.626;2022-10-17T11:10:57;0.80;;;0.80;;
68384;SDS011;55336;43.062;25.626;2022-10-17T11:13:36;1.20;;;1.10;;
68384;SDS011;55336;43.062;25.626;2022-10-17T11:24:57;1.20;;;1.13;;
68384;SDS011;55336;43.062;25.626;2022-10-17T11:27:27;1.02;;;1.00;;
68384;SDS011;55336;43.062;25.626;2022-10-17T11:29:54;1.38;;;1.02;;
68384;SDS011;55336;43.062;25.626;2022-10-17T11:32:23;1.17;;;1.08;;
68384;SDS011;55336;43.062;25.626;2022-10-17T11:35:02;0.90;;;0.90;;
68384;SDS011;55336;43.062;25.626;2022-10-17T11:37:43;1.20;;;1.10;;
68384;SDS011;55336;43.062;25.626;2022-10-17T11:40:15;1.58;;;1.20;;
68384;SDS011;55336;43.062;25.626;2022-10-17T11:42:58;1.00;;;1.00;;
68384;SDS011;55336;43.062;25.626;2022-10-17T11:45:34;1.00;;;0.90;;
68384;SDS011;55336;43.062;25.626;2022-10-17T11:48:09;1.23;;;1.13;;
68384;SDS011;55336;43.062;25.626;2022-10-17T11:50:41;1.15;;;1.15;;
68384;SDS011;55336;43.062;25.626;2022-10-17T11:55:41;1.15;;;1.15;;
68384;SDS011;55336;43.062;25.626;2022-10-17T12:07:13;2.00;;;1.80;;
68384;SDS011;55336;43.062;25.626;2022-10-17T12:12:46;0.80;;;0.80;;
68384;SDS011;55336;43.062;25.626;2022-10-17T12:17:56;1.05;;;1.05;;
68384;SDS011;55336;43.062;25.626;2022-10-17T12:20:35;1.70;;;1.60;;
68384;SDS011;55336;43.062;25.626;2022-10-17T12:25:47;1.23;;;0.95;;
68384;SDS011;55336;43.062;25.626;2022-10-17T12:28:23;1.15;;;1.02;;
68384;SDS011;55336;43.062;25.626;2022-10-17T12:38:51;1.33;;;1.23;;
68384;SDS011;55336;43.062;25.626;2022-10-17T12:46:45;1.08;;;1.00;;
68384;SDS011;55336;43.062;25.626;2022-10-17T12:52:14;1.63;;;1.30;;
68384;SDS011;55336;43.062;25.626;2022-10-17T12:54:44;1.17;;;1.08;;
68384;SDS011;55336;43.062;25.626;2022-10-17T13:00:12;0.70;;;0.70;;
68384;SDS011;55336;43.062;25.626;2022-10-17T13:02:48;1.38;;;1.23;;
68384;SDS011;55336;43.062;25.626;2022-10-17T13:05:29;1.00;;;0.90;;
68384;SDS011;55336;43.062;25.626;2022-10-17T13:07:58;1.15;;;0.77;;
68384;SDS011;55336;43.062;25.626;2022-10-17T13:10:27;2.40;;;1.25;;
68384;SDS011;55336;43.062;25.626;2022-10-17T13:13:15;0.73;;;0.73;;
68384;SDS011;55336;43.062;25.626;2022-10-17T13:15:49;6.95;;;1.45;;
68384;SDS011;55336;43.062;25.626;2022-10-17T13:18:24;0.50;;;0.50;;
68384;SDS011;55336;43.062;25.626;2022-10-17T13:20:53;1.00;;;0.90;;
68384;SDS011;55336;43.062;25.626;2022-10-17T13:23:28;0.60;;;0.60;;
68384;SDS011;55336;43.062;25.626;2022-10-17T13:26:04;0.70;;;0.70;;
68384;SDS011;55336;43.062;25.626;2022-10-17T13:31:36;0.80;;;0.80;;
68384;SDS011;55336;43.062;25.626;2022-10-17T13:34:04;0.60;;;0.60;;
68384;SDS011;55336;43.062;25.626;2022-10-17T13:36:40;0.80;;;0.80;;
68384;SDS011;55336;43.062;25.626;2022-10-17T13:39:07;1.17;;;0.90;;
68384;SDS011;55336;43.062;25.626;2022-10-17T13:41:49;0.93;;;0.70;;
68384;SDS011;55336;43.062;25.626;2022-10-17T13:44:24;0.88;;;0.85;;
68384;SDS011;55336;43.062;25.626;2022-10-17T13:46:52;1.55;;;0.95;;
68384;SDS011;55336;43.062;25.626;2022-10-17T13:51:52;1.00;;;0.98;;
68384;SDS011;55336;43.062;25.626;2022-10-17T13:54:33;0.95;;;0.95;;
68384;SDS011;55336;43.062;25.626;2022-10-17T13:59:52;5.78;;;0.80;;
68384;SDS011;55336;43.062;25.626;2022-10-17T14:02:19;0.95;;;0.93;;
68384;SDS011;55336;43.062;25.626;2022-10-17T14:05:33;1.73;;;1.10;;
68384;SDS011;55336;43.062;25.626;2022-10-17T14:07:36;0.75;;;0.75;;
68384;SDS011;55336;43.062;25.626;2022-10-17T14:10:21;2.40;;;1.20;;
68384;SDS011;55336;43.062;25.626;2022-10-17T14:12:54;0.88;;;0.88;;
68384;SDS011;55336;43.062;25.626;2022-10-17T14:15:22;0.88;;;0.88;;
68384;SDS011;55336;43.062;25.626;2022-10-17T14:17:59;0.77;;;0.77;;
68384;SDS011;55336;43.062;25.626;2022-10-17T14:20:27;1.48;;;1.38;;
68384;SDS011;55336;43.062;25.626;2022-10-17T14:22:56;4.05;;;1.25;;
68384;SDS011;55336;43.062;25.626;2022-10-17T14:25:33;2.38;;;1.30;;
68384;SDS011;55336;43.062;25.626;2022-10-17T14:30:40;1.05;;;1.02;;
68384;SDS011;55336;43.062;25.626;2022-10-17T14:33:12;1.80;;;1.23;;
68384;SDS011;55336;43.062;25.626;2022-10-17T14:35:54;0.60;;;0.60;;
68384;SDS011;55336;43.062;25.626;2022-10-17T14:38:22;1.23;;;1.17;;
68384;SDS011;55336;43.062;25.626;2022-10-17T14:40:55;1.08;;;0.98;;
68384;SDS011;55336;43.062;25.626;2022-10-17T14:43:25;2.67;;;1.80;;
68384;SDS011;55336;43.062;25.626;2022-10-17T14:45:55;1.30;;;1.20;;
68384;SDS011;55336;43.062;25.626;2022-10-17T14:48:25;1.08;;;0.98;;
68384;SDS011;55336;43.062;25.626;2022-10-17T14:51:07;1.05;;;1.02;;
68384;SDS011;55336;43.062;25.626;2022-10-17T14:53:38;1.02;;;1.02;;
68384;SDS011;55336;43.062;25.626;2022-10-17T14:56:22;0.95;;;0.88;;
68384;SDS011;55336;43.062;25.626;2022-10-17T14:58:50;1.02;;;0.95;;
68384;SDS011;55336;43.062;25.626;2022-10-17T15:01:17;0.90;;;0.90;;
68384;SDS011;55336;43.062;25.626;2022-10-17T15:03:43;2.80;;;1.15;;
68384;SDS011;55336;43.062;25.626;2022-10-17T15:06:17;1.27;;;1.02;;
68384;SDS011;55336;43.062;25.626;2022-10-17T15:08:45;12.52;;;1.92;;
68384;SDS011;55336;43.062;25.626;2022-10-17T15:11:13;1.25;;;1.08;;
68384;SDS011;55336;43.062;25.626;2022-10-17T15:13:39;2.05;;;1.85;;
68384;SDS011;55336;43.062;25.626;2022-10-17T15:18:47;2.65;;;1.90;;
68384;SDS011;55336;43.062;25.626;2022-10-17T15:21:15;1.65;;;1.55;;
68384;SDS011;55336;43.062;25.626;2022-10-17T15:23:43;2.03;;;1.80;;
68384;SDS011;55336;43.062;25.626;2022-10-17T15:28:46;3.60;;;2.30;;
68384;SDS011;55336;43.062;25.626;2022-10-17T15:31:14;3.53;;;2.05;;
68384;SDS011;55336;43.062;25.626;2022-10-17T15:33:44;1.15;;;1.13;;
68384;SDS011;55336;43.062;25.626;2022-10-17T15:36:32;2.15;;;1.83;;
68384;SDS011;55336;43.062;25.626;2022-10-17T15:39:01;2.30;;;1.60;;
68384;SDS011;55336;43.062;25.626;2022-10-17T15:41:28;2.22;;;1.77;;
68384;SDS011;55336;43.062;25.626;2022-10-17T15:43:55;2.92;;;2.25;;
68384;SDS011;55336;43.062;25.626;2022-10-17T15:48:50;2.25;;;2.10;;
68384;SDS011;55336;43.062;25.626;2022-10-17T15:51:17;1.95;;;1.52;;
68384;SDS011;55336;43.062;25.626;2022-10-17T15:53:43;2.22;;;2.03;;
68384;SDS011;55336;43.062;25.626;2022-10-17T15:56:17;1.88;;;1.77;;
68384;SDS011;55336;43.062;25.626;2022-10-17T15:58:49;2.92;;;2.13;;
68384;SDS011;55336;43.062;25.626;2022-10-17T16:01:22;2.00;;;1.70;;
68384;SDS011;55336;43.062;25.626;2022-10-17T16:03:50;1.63;;;1.52;;
68384;SDS011;55336;43.062;25.626;2022-10-17T16:06:16;1.73;;;1.63;;
68384;SDS011;55336;43.062;25.626;2022-10-17T16:08:44;2.03;;;1.85;;
68384;SDS011;55336;43.062;25.626;2022-10-17T16:11:18;1.52;;;1.42;;
68384;SDS011;55336;43.062;25.626;2022-10-17T16:14:05;2.15;;;1.55;;
68384;SDS011;55336;43.062;25.626;2022-10-17T16:16:34;1.73;;;1.63;;
68384;SDS011;55336;43.062;25.626;2022-10-17T16:19:00;1.50;;;1.42;;
68384;SDS011;55336;43.062;25.626;2022-10-17T16:21:27;2.03;;;1.70;;
68384;SDS011;55336;43.062;25.626;2022-10-17T16:23:56;2.28;;;1.60;;
68384;SDS011;55336;43.062;25.626;2022-10-17T16:26:22;6.47;;;1.75;;
68384;SDS011;55336;43.062;25.626;2022-10-17T16:28:48;4.55;;;1.83;;
68384;SDS011;55336;43.062;25.626;2022-10-17T16:31:17;3.42;;;1.92;;
68384;SDS011;55336;43.062;25.626;2022-10-17T16:33:48;4.68;;;2.20;;
68384;SDS011;55336;43.062;25.626;2022-10-17T16:36:16;8.40;;;2.60;;
68384;SDS011;55336;43.062;25.626;2022-10-17T16:41:30;2.67;;;1.83;;
68384;SDS011;55336;43.062;25.626;2022-10-17T16:43:57;2.08;;;1.65;;
68384;SDS011;55336;43.062;25.626;2022-10-17T16:46:31;2.35;;;2.15;;
68384;SDS011;55336;43.062;25.626;2022-10-17T16:48:58;4.57;;;2.25;;
68384;SDS011;55336;43.062;25.626;2022-10-17T16:53:51;2.25;;;2.03;;
68384;SDS011;55336;43.062;25.626;2022-10-17T16:56:21;1.98;;;1.88;;
68384;SDS011;55336;43.062;25.626;2022-10-17T16:58:48;2.10;;;2.00;;
68384;SDS011;55336;43.062;25.626;2022-10-17T17:01:16;5.38;;;2.22;;
68384;SDS011;55336;43.062;25.626;2022-10-17T17:03:44;3.08;;;2.35;;
68384;SDS011;55336;43.062;25.626;2022-10-17T17:06:18;3.40;;;2.08;;
68384;SDS011;55336;43.062;25.626;2022-10-17T17:08:46;2.15;;;2.05;;
68384;SDS011;55336;43.062;25.626;2022-10-17T17:11:13;2.00;;;1.90;;
68384;SDS011;55336;43.062;25.626;2022-10-17T17:13:40;2.10;;;2.00;;
68384;SDS011;55336;43.062;25.626;2022-10-17T17:18:34;3.35;;;2.63;;
68384;SDS011;55336;43.062;25.626;2022-10-17T17:21:00;2.13;;;2.00;;
68384;SDS011;55336;43.062;25.626;2022-10-17T17:23:28;7.20;;;2.50;;
68384;SDS011;55336;43.062;25.626;2022-10-17T17:25:58;2.33;;;2.13;;
68384;SDS011;55336;43.062;25.626;2022-10-17T17:28:26;2.40;;;2.20;;
68384;SDS011;55336;43.062;25.626;2022-10-17T17:30:52;2.85;;;2.17;;
68384;SDS011;55336;43.062;25.626;2022-10-17T17:33:19;2.75;;;2.53;;
68384;SDS011;55336;43.062;25.626;2022-10-17T17:35:46;2.55;;;2.35;;
68384;SDS011;55336;43.062;25.626;2022-10-17T17:40:45;2.33;;;2.13;;
68384;SDS011;55336;43.062;25.626;2022-10-17T17:43:11;2.90;;;2.45;;
68384;SDS011;55336;43.062;25.626;2022-10-17T17:45:37;2.45;;;2.25;;
68384;SDS011;55336;43.062;25.626;2022-10-17T17:48:03;2.03;;;1.92;;
68384;SDS011;55336;43.062;25.626;2022-10-17T17:55:22;2.15;;;2.05;;
68384;SDS011;55336;43.062;25.626;2022-10-17T17:57:49;14.38;;;2.58;;
68384;SDS011;55336;43.062;25.626;2022-10-17T18:02:41;2.13;;;1.93;;
68384;SDS011;55336;43.062;25.626;2022-10-17T18:05:07;5.68;;;2.28;;
68384;SDS011;55336;43.062;25.626;2022-10-17T18:10:04;3.10;;;2.65;;
68384;SDS011;55336;43.062;25.626;2022-10-17T18:12:31;2.55;;;2.35;;
68384;SDS011;55336;43.062;25.626;2022-10-17T18:14:58;2.50;;;2.28;;